Time;durP1;ratioP1;P1;durP2;ratioP2;P2;SDS_P1;SDS_P2;PMS_P1;PMS_P2;Temp;Humidity;BMP_temperature;BMP_pressure;BME280_temperature;BME280_humidity;BME280_pressure;Samples;Min_cycle;Max_cycle;Signal;HPM_P1;HPM_P2
2024/03/31 00:00:38;;;;;;;17.20;15.30;;;10.10;99.90;;;;;;2085810;28;20136;-69
2024/03/31 00:01:39;;;;;;;16.92;14.75;;;10.10;99.90;;;;;;2085726;28;20032;-69
2024/03/31 00:02:43;;;;;;;15.77;14.10;;;10.10;99.90;;;;;;2086277;28;20044;-70
2024/03/31 00:03:44;;;;;;;17.70;15.90;;;10.10;99.90;;;;;;2088276;28;20371;-70
2024/03/31 00:04:51;;;;;;;16.48;14.77;;;10.10;99.90;;;;;;2085784;28;20032;-70
2024/03/31 00:05:55;;;;;;;17.30;15.27;;;10.00;99.90;;;;;;2084986;28;20027;-70
2024/03/31 00:06:55;;;;;;;17.83;15.32;;;10.00;99.90;;;;;;2085573;28;20107;-70
2024/03/31 00:07:56;;;;;;;18.30;16.15;;;10.00;99.90;;;;;;2087505;28;20071;-71
2024/03/31 00:08:57;;;;;;;18.98;16.73;;;10.00;99.90;;;;;;2084895;28;20529;-71
2024/03/31 00:09:57;;;;;;;17.05;15.25;;;10.00;99.90;;;;;;2086983;28;20129;-71
2024/03/31 00:11:03;;;;;;;17.38;14.20;;;10.00;99.90;;;;;;2085394;28;20493;-70
2024/03/31 00:12:04;;;;;;;19.58;17.42;;;9.90;99.90;;;;;;2086572;28;20017;-70
2024/03/31 00:13:04;;;;;;;15.68;14.05;;;9.90;99.90;;;;;;2086574;28;20108;-71
2024/03/31 00:14:05;;;;;;;17.60;15.73;;;9.90;99.90;;;;;;2086073;28;20026;-71
2024/03/31 00:15:06;;;;;;;19.55;16.52;;;9.90;99.90;;;;;;2086726;28;20493;-70
2024/03/31 00:16:06;;;;;;;15.07;13.50;;;9.90;99.90;;;;;;2085986;28;20424;-71
2024/03/31 00:17:08;;;;;;;19.17;16.50;;;9.90;99.90;;;;;;2084578;28;20111;-70
2024/03/31 00:18:09;;;;;;;17.58;15.68;;;9.90;99.90;;;;;;2086530;28;20052;-69
2024/03/31 00:19:12;;;;;;;16.50;14.70;;;9.90;99.90;;;;;;2086999;28;20075;-71
2024/03/31 00:20:13;;;;;;;18.77;16.77;;;9.80;99.90;;;;;;2084567;28;20029;-70
2024/03/31 00:21:14;;;;;;;17.13;14.75;;;9.80;99.90;;;;;;2092953;28;20131;-70
2024/03/31 00:22:15;;;;;;;17.27;15.23;;;9.80;99.90;;;;;;2093778;28;20077;-69
2024/03/31 00:23:16;;;;;;;20.15;16.35;;;9.80;99.90;;;;;;2093508;28;20043;-70
2024/03/31 00:24:16;;;;;;;18.70;16.20;;;9.80;99.90;;;;;;2093563;28;20024;-70
2024/03/31 00:25:17;;;;;;;17.83;15.93;;;9.80;99.90;;;;;;2094125;28;20064;-69
2024/03/31 00:26:17;;;;;;;16.92;15.20;;;9.80;99.90;;;;;;2093904;28;20024;-70
2024/03/31 00:27:24;;;;;;;16.98;14.60;;;9.70;99.90;;;;;;2094271;28;20496;-69
2024/03/31 00:28:25;;;;;;;18.02;16.13;;;9.70;99.90;;;;;;2094799;28;20041;-70
2024/03/31 00:29:26;;;;;;;19.05;15.43;;;9.70;99.90;;;;;;2093948;28;20020;-70
2024/03/31 00:30:26;;;;;;;18.80;16.25;;;9.70;99.90;;;;;;2092108;28;20040;-69
2024/03/31 00:31:27;;;;;;;19.58;16.27;;;9.70;99.90;;;;;;2093682;28;20431;-69
2024/03/31 00:32:27;;;;;;;18.35;15.60;;;9.70;99.90;;;;;;2094561;28;20059;-68
2024/03/31 00:33:28;;;;;;;16.45;13.93;;;9.70;99.90;;;;;;2093875;28;20437;-69
2024/03/31 00:34:29;;;;;;;16.25;14.55;;;9.70;99.90;;;;;;2088158;28;20025;-69
2024/03/31 00:35:29;;;;;;;16.40;14.65;;;9.70;99.90;;;;;;2086598;28;20052;-70
2024/03/31 00:36:30;;;;;;;16.23;14.40;;;9.70;99.90;;;;;;2094379;28;20024;-70
2024/03/31 00:37:30;;;;;;;18.38;16.40;;;9.70;99.90;;;;;;2093299;28;20032;-69
2024/03/31 00:38:34;;;;;;;20.58;14.73;;;9.70;99.90;;;;;;2085383;28;20021;-70
2024/03/31 00:39:34;;;;;;;15.43;13.40;;;9.60;99.90;;;;;;2086773;28;20030;-70
2024/03/31 00:40:35;;;;;;;19.20;16.58;;;9.60;99.90;;;;;;2094990;28;20108;-70
2024/03/31 00:41:36;;;;;;;16.15;14.55;;;9.60;99.90;;;;;;2094427;28;20032;-69
2024/03/31 00:42:36;;;;;;;19.23;16.08;;;9.60;99.90;;;;;;2093685;28;20028;-70
2024/03/31 00:43:37;;;;;;;15.50;13.00;;;9.60;99.90;;;;;;2085286;28;20070;-70
2024/03/31 00:44:40;;;;;;;17.65;15.30;;;9.60;99.90;;;;;;2087057;28;20059;-71
2024/03/31 00:45:41;;;;;;;16.05;14.35;;;9.60;99.90;;;;;;2094774;28;20123;-69
2024/03/31 00:46:42;;;;;;;17.45;15.32;;;9.60;99.90;;;;;;2086849;28;20087;-69
2024/03/31 00:47:42;;;;;;;16.08;13.70;;;9.60;99.90;;;;;;2085002;28;20112;-70
2024/03/31 00:48:43;;;;;;;17.80;14.75;;;9.60;99.90;;;;;;2093109;28;20074;-70
2024/03/31 00:49:44;;;;;;;19.65;17.25;;;9.60;99.90;;;;;;2093826;28;20031;-70
2024/03/31 00:50:45;;;;;;;17.52;15.38;;;9.50;99.90;;;;;;2094580;28;20031;-70
2024/03/31 00:51:45;;;;;;;15.30;13.60;;;9.50;99.90;;;;;;2094516;28;20020;-70
2024/03/31 00:52:48;;;;;;;18.73;16.40;;;9.50;99.90;;;;;;2095628;28;20366;-70
2024/03/31 00:53:49;;;;;;;16.63;14.77;;;9.50;99.90;;;;;;2091749;28;20024;-70
2024/03/31 00:54:49;;;;;;;17.75;15.52;;;9.50;99.90;;;;;;2095421;28;20040;-70
2024/03/31 00:55:50;;;;;;;20.83;17.48;;;9.50;99.90;;;;;;2092957;28;20044;-70
2024/03/31 00:56:51;;;;;;;18.27;15.88;;;9.50;99.90;;;;;;2092948;28;20055;-69
2024/03/31 00:57:51;;;;;;;19.50;17.13;;;9.50;99.90;;;;;;2084254;28;20140;-69
2024/03/31 00:58:52;;;;;;;16.48;13.57;;;9.50;99.90;;;;;;2081847;28;20017;-69
2024/03/31 00:59:53;;;;;;;15.02;13.25;;;9.50;99.90;;;;;;2087270;28;20538;-71
2024/03/31 01:00:54;;;;;;;17.60;15.70;;;9.50;99.90;;;;;;2094123;28;20107;-69
2024/03/31 01:01:54;;;;;;;16.50;14.75;;;9.50;99.90;;;;;;2094363;28;20028;-71
2024/03/31 01:02:55;;;;;;;16.85;14.82;;;9.50;99.90;;;;;;2094438;28;20493;-69
2024/03/31 01:03:56;;;;;;;17.95;15.13;;;9.50;99.90;;;;;;2093958;28;20017;-70
2024/03/31 01:04:56;;;;;;;17.98;15.30;;;9.50;99.90;;;;;;2087831;28;20045;-71
2024/03/31 01:06:24;;;;;;;23.15;18.08;;;9.40;99.90;;;;;;2088069;28;20432;-70
2024/03/31 01:07:25;;;;;;;23.38;18.48;;;9.50;99.90;;;;;;2065910;28;20046;-69
2024/03/31 01:08:28;;;;;;;23.02;19.20;;;9.40;99.90;;;;;;2092875;28;20052;-69
2024/03/31 01:09:29;;;;;;;29.80;23.15;;;9.40;99.90;;;;;;2094790;28;20029;-69
2024/03/31 01:10:30;;;;;;;29.58;22.85;;;9.40;99.90;;;;;;2095732;28;20455;-69
2024/03/31 01:11:31;;;;;;;27.67;23.35;;;9.40;99.90;;;;;;2093172;28;20025;-70
2024/03/31 01:12:33;;;;;;;30.90;24.45;;;9.40;99.90;;;;;;2093623;28;20032;-69
2024/03/31 01:13:33;;;;;;;33.40;26.48;;;9.40;99.90;;;;;;2093882;28;20025;-70
2024/03/31 01:14:34;;;;;;;31.67;25.17;;;9.40;99.90;;;;;;2094588;28;20035;-70
2024/03/31 01:15:35;;;;;;;39.67;28.48;;;9.40;99.90;;;;;;2085619;28;20029;-70
2024/03/31 01:16:36;;;;;;;34.47;27.50;;;9.50;99.90;;;;;;2092363;28;20097;-69
2024/03/31 01:17:37;;;;;;;38.05;28.38;;;9.50;99.90;;;;;;2094169;28;20109;-69
2024/03/31 01:18:37;;;;;;;32.53;25.00;;;9.50;99.90;;;;;;2095096;28;20056;-69
2024/03/31 01:19:38;;;;;;;32.75;25.52;;;9.50;99.90;;;;;;2087232;28;20086;-69
2024/03/31 01:20:39;;;;;;;32.50;25.75;;;9.50;99.90;;;;;;2086036;28;20021;-70
2024/03/31 01:21:40;;;;;;;34.08;26.38;;;9.60;99.90;;;;;;2086358;28;20041;-71
2024/03/31 01:22:43;;;;;;;30.67;24.80;;;9.50;99.90;;;;;;2085977;28;21071;-69
2024/03/31 01:23:43;;;;;;;32.63;25.70;;;9.60;99.90;;;;;;2094483;28;20024;-70
2024/03/31 01:24:44;;;;;;;34.45;26.70;;;9.60;99.90;;;;;;2094514;28;20031;-70
2024/03/31 01:25:44;;;;;;;31.98;25.33;;;9.60;99.90;;;;;;2095026;28;20740;-70
2024/03/31 01:26:45;;;;;;;32.53;24.70;;;9.60;99.90;;;;;;2093398;28;20690;-70
2024/03/31 01:27:45;;;;;;;33.88;25.70;;;9.60;99.90;;;;;;2091894;28;20043;-70
2024/03/31 01:28:46;;;;;;;33.20;27.30;;;9.60;99.90;;;;;;2095110;28;20900;-69
2024/03/31 01:29:50;;;;;;;31.23;25.27;;;9.60;99.90;;;;;;2093716;28;20032;-71
2024/03/31 01:30:50;;;;;;;24.88;21.20;;;9.60;99.90;;;;;;2096301;28;20035;-71
2024/03/31 01:31:51;;;;;;;26.90;22.48;;;9.60;99.90;;;;;;2093729;28;20051;-69
2024/03/31 01:32:52;;;;;;;28.60;22.77;;;9.60;99.90;;;;;;2094292;28;20025;-70
2024/03/31 01:33:52;;;;;;;29.95;24.27;;;9.60;99.90;;;;;;2093952;28;20049;-69
2024/03/31 01:34:53;;;;;;;26.30;21.42;;;9.60;99.90;;;;;;2095861;28;20028;-70
2024/03/31 01:35:59;;;;;;;27.70;22.65;;;9.60;99.90;;;;;;2094761;28;20029;-70
2024/03/31 01:37:01;;;;;;;27.95;22.23;;;9.60;99.90;;;;;;2095427;28;20654;-69
2024/03/31 01:38:01;;;;;;;25.58;21.60;;;9.60;99.90;;;;;;2094400;28;20061;-69
2024/03/31 01:39:05;;;;;;;25.67;21.40;;;9.60;99.90;;;;;;2091883;28;20393;-69
2024/03/31 01:40:06;;;;;;;32.47;24.50;;;9.60;99.90;;;;;;2091723;28;20059;-69
2024/03/31 01:41:06;;;;;;;31.55;24.67;;;9.60;99.90;;;;;;2086041;28;20027;-69
2024/03/31 01:42:07;;;;;;;30.15;23.13;;;9.60;99.90;;;;;;2083427;28;20040;-70
2024/03/31 01:43:07;;;;;;;29.85;22.33;;;9.60;99.90;;;;;;2093425;28;20024;-71
2024/03/31 01:44:08;;;;;;;27.08;21.92;;;9.60;99.90;;;;;;2093988;28;20121;-70
2024/03/31 01:45:09;;;;;;;27.75;21.48;;;9.60;99.90;;;;;;2093344;28;20020;-70
2024/03/31 01:46:10;;;;;;;26.65;22.05;;;9.60;99.90;;;;;;2092818;28;20116;-70
2024/03/31 01:47:10;;;;;;;30.58;23.40;;;9.60;99.90;;;;;;2093296;28;20024;-69
2024/03/31 01:48:11;;;;;;;23.45;19.75;;;9.60;99.90;;;;;;2095315;28;20050;-69
2024/03/31 01:49:12;;;;;;;23.75;21.05;;;9.60;99.90;;;;;;2094945;28;20031;-71
2024/03/31 01:50:12;;;;;;;26.77;21.52;;;9.60;99.90;;;;;;2091678;28;20086;-70
2024/03/31 01:51:13;;;;;;;24.65;20.40;;;9.60;99.90;;;;;;2093452;28;20028;-70
2024/03/31 01:52:13;;;;;;;40.45;32.05;;;9.50;99.90;;;;;;2093539;28;20029;-70
2024/03/31 01:53:17;;;;;;;41.65;31.85;;;9.60;99.90;;;;;;2094459;28;20350;-70
2024/03/31 01:54:18;;;;;;;36.83;28.25;;;9.60;99.90;;;;;;2093262;28;20116;-69
2024/03/31 01:55:21;;;;;;;33.72;27.50;;;9.60;99.90;;;;;;2086123;28;20056;-69
2024/03/31 01:56:24;;;;;;;36.13;27.73;;;9.60;99.90;;;;;;2087865;28;20025;-69
2024/03/31 01:57:25;;;;;;;38.13;28.23;;;9.60;99.90;;;;;;2095130;28;20427;-70
2024/03/31 01:58:25;;;;;;;41.40;32.47;;;9.60;99.90;;;;;;2087656;28;20029;-70
2024/03/31 01:59:26;;;;;;;42.38;33.33;;;9.60;99.90;;;;;;2086878;28;20067;-70
2024/03/31 02:00:27;;;;;;;46.45;35.10;;;9.60;99.90;;;;;;2093532;28;20027;-70
2024/03/31 02:01:27;;;;;;;47.05;36.92;;;9.60;99.90;;;;;;2094199;28;20036;-70
2024/03/31 02:02:31;;;;;;;46.50;36.65;;;9.60;99.90;;;;;;2094251;28;20396;-70
2024/03/31 02:03:31;;;;;;;41.50;34.70;;;9.60;99.90;;;;;;2085217;28;20485;-70
2024/03/31 02:04:35;;;;;;;41.70;33.63;;;9.60;99.90;;;;;;2085597;28;20346;-70
2024/03/31 02:05:35;;;;;;;41.80;34.30;;;9.60;99.90;;;;;;2093558;28;20021;-69
2024/03/31 02:06:36;;;;;;;38.72;31.63;;;9.70;99.90;;;;;;2092391;28;20024;-70
2024/03/31 02:07:36;;;;;;;36.60;31.20;;;9.70;99.90;;;;;;2095187;28;20032;-71
2024/03/31 02:08:40;;;;;;;37.05;31.52;;;9.70;99.90;;;;;;2094690;28;20033;-69
2024/03/31 02:09:41;;;;;;;36.30;30.50;;;9.70;99.90;;;;;;2093670;28;20024;-70
2024/03/31 02:10:41;;;;;;;36.50;29.50;;;9.70;99.90;;;;;;2091852;28;20029;-70
2024/03/31 02:11:42;;;;;;;36.00;30.10;;;9.70;99.90;;;;;;2095419;28;20028;-69
2024/03/31 02:12:43;;;;;;;35.45;29.80;;;9.70;99.90;;;;;;2094897;28;20489;-71
2024/03/31 02:13:43;;;;;;;33.38;27.55;;;9.70;99.90;;;;;;2093716;28;20017;-70
2024/03/31 02:14:44;;;;;;;34.45;28.50;;;9.70;99.90;;;;;;2094129;28;20056;-69
2024/03/31 02:15:44;;;;;;;34.00;27.90;;;9.80;99.90;;;;;;2095446;28;20039;-69
2024/03/31 02:16:46;;;;;;;32.60;27.88;;;9.80;99.90;;;;;;2094281;28;20032;-71
2024/03/31 02:17:50;;;;;;;32.78;26.20;;;9.80;99.90;;;;;;2093828;28;20032;-70
2024/03/31 02:18:50;;;;;;;32.15;27.30;;;9.80;99.90;;;;;;2091279;28;20484;-71
2024/03/31 02:19:51;;;;;;;32.67;27.15;;;9.80;99.90;;;;;;2095168;28;20407;-69
2024/03/31 02:20:51;;;;;;;36.00;28.38;;;9.80;99.90;;;;;;2093565;28;20029;-69
2024/03/31 02:21:52;;;;;;;30.85;27.33;;;9.80;99.90;;;;;;2092476;28;20535;-69
2024/03/31 02:22:53;;;;;;;32.45;27.10;;;9.80;99.90;;;;;;2094741;28;20035;-70
2024/03/31 02:23:53;;;;;;;30.88;26.73;;;9.90;99.90;;;;;;2093515;28;20032;-69
2024/03/31 02:24:54;;;;;;;31.13;27.77;;;9.80;99.90;;;;;;2094177;28;20017;-69
2024/03/31 02:25:54;;;;;;;31.70;26.60;;;9.90;99.90;;;;;;2094644;28;20124;-70
2024/03/31 02:26:55;;;;;;;32.35;26.90;;;9.90;99.90;;;;;;2082594;28;20025;-70
2024/03/31 02:27:56;;;;;;;34.50;27.50;;;9.90;99.90;;;;;;2085170;28;20074;-69
2024/03/31 02:28:56;;;;;;;31.20;25.80;;;9.90;99.90;;;;;;2084216;28;20025;-69
2024/03/31 02:29:57;;;;;;;30.10;25.13;;;9.90;99.90;;;;;;2086324;28;20489;-71
2024/03/31 02:30:58;;;;;;;28.67;25.33;;;9.90;99.90;;;;;;2083554;28;20036;-69
2024/03/31 02:31:59;;;;;;;33.55;27.30;;;10.00;99.90;;;;;;2094626;28;20048;-71
2024/03/31 02:32:59;;;;;;;32.42;25.45;;;9.90;99.90;;;;;;2093600;28;20028;-70
2024/03/31 02:34:00;;;;;;;28.85;25.75;;;10.00;99.90;;;;;;2085129;28;20033;-69
2024/03/31 02:35:01;;;;;;;29.92;26.40;;;10.00;99.90;;;;;;2085553;28;20039;-70
2024/03/31 02:36:01;;;;;;;29.45;25.30;;;10.00;99.90;;;;;;2094391;28;20028;-70
2024/03/31 02:37:02;;;;;;;31.42;25.83;;;10.00;99.90;;;;;;2093533;28;20140;-70
2024/03/31 02:38:03;;;;;;;31.23;25.75;;;10.00;99.90;;;;;;2094133;28;20036;-71
2024/03/31 02:39:07;;;;;;;31.23;25.75;;;10.00;99.90;;;;;;2093461;28;20024;-70
2024/03/31 02:40:08;;;;;;;29.85;25.30;;;10.00;99.90;;;;;;2094159;28;20107;-70
2024/03/31 02:41:08;;;;;;;31.23;26.15;;;10.00;99.90;;;;;;2093022;28;20036;-70
2024/03/31 02:42:09;;;;;;;30.02;25.45;;;10.00;99.90;;;;;;2092975;28;20029;-69
2024/03/31 02:43:09;;;;;;;30.00;25.50;;;10.00;99.90;;;;;;2095349;28;20431;-70
2024/03/31 02:44:10;;;;;;;31.88;25.60;;;10.00;99.90;;;;;;2095125;28;20088;-70
2024/03/31 02:45:13;;;;;;;28.77;25.67;;;10.00;99.90;;;;;;2094658;28;20461;-69
2024/03/31 02:46:17;;;;;;;30.20;25.58;;;10.00;99.90;;;;;;2094135;28;20048;-71
2024/03/31 02:47:18;;;;;;;30.00;26.13;;;10.00;99.90;;;;;;2092882;28;20520;-71
2024/03/31 02:48:18;;;;;;;30.90;26.38;;;10.10;99.90;;;;;;2092607;28;20075;-69
2024/03/31 02:49:19;;;;;;;32.13;27.38;;;10.00;99.90;;;;;;2092972;28;20036;-70
2024/03/31 02:50:23;;;;;;;33.83;27.80;;;10.00;99.90;;;;;;2094036;28;20581;-71
2024/03/31 02:51:23;;;;;;;30.50;26.30;;;10.00;99.90;;;;;;2093480;28;20021;-70
2024/03/31 02:52:24;;;;;;;26.90;21.70;;;10.00;99.90;;;;;;2096117;28;20028;-70
2024/03/31 02:53:25;;;;;;;31.20;25.02;;;10.00;99.90;;;;;;2093336;28;20041;-69
2024/03/31 02:54:25;;;;;;;29.98;25.55;;;10.00;99.90;;;;;;2092866;28;20024;-70
2024/03/31 02:55:26;;;;;;;32.05;26.95;;;10.00;99.90;;;;;;2085168;28;20492;-70
2024/03/31 02:56:26;;;;;;;28.98;24.50;;;10.00;99.90;;;;;;2085542;28;20591;-70
2024/03/31 02:57:27;;;;;;;28.42;25.10;;;10.00;99.90;;;;;;2088732;28;20448;-70
2024/03/31 02:58:28;;;;;;;30.17;25.95;;;10.00;99.90;;;;;;2093184;28;20021;-69
2024/03/31 02:59:28;;;;;;;32.65;25.77;;;10.00;99.90;;;;;;2093797;28;20036;-69
2024/03/31 03:00:29;;;;;;;27.98;24.80;;;10.00;99.90;;;;;;2094166;28;20120;-71
2024/03/31 03:01:30;;;;;;;27.25;23.65;;;10.00;99.90;;;;;;2086342;28;20032;-69
2024/03/31 03:02:30;;;;;;;29.70;25.67;;;10.10;99.90;;;;;;2088045;28;20087;-70
2024/03/31 03:03:31;;;;;;;26.55;23.08;;;10.00;99.90;;;;;;2093166;28;20522;-69
2024/03/31 03:04:32;;;;;;;26.67;22.30;;;10.00;99.90;;;;;;2093307;28;20021;-69
2024/03/31 03:05:33;;;;;;;28.77;23.75;;;10.00;99.90;;;;;;2092948;28;20056;-69
2024/03/31 03:06:33;;;;;;;30.67;24.40;;;10.00;99.90;;;;;;2090506;28;20099;-69
2024/03/31 03:07:34;;;;;;;29.02;25.13;;;10.00;99.90;;;;;;2092872;28;20032;-70
2024/03/31 03:08:39;;;;;;;28.38;25.15;;;10.00;99.90;;;;;;2092835;28;20384;-70
2024/03/31 03:09:40;;;;;;;25.73;22.98;;;10.00;99.90;;;;;;2093209;28;20063;-70
2024/03/31 03:10:53;;;;;;;29.33;26.17;;;10.00;99.90;;;;;;2094434;28;20427;-70
2024/03/31 03:11:54;;;;;;;29.55;25.55;;;10.00;99.90;;;;;;2093978;28;20434;-70
2024/03/31 03:12:55;;;;;;;29.48;25.27;;;10.00;99.90;;;;;;2092863;28;20044;-69
2024/03/31 03:13:55;;;;;;;31.83;26.25;;;10.00;99.90;;;;;;2092883;28;20032;-70
2024/03/31 03:14:58;;;;;;;30.48;26.08;;;10.00;99.90;;;;;;2093028;28;20025;-69
2024/03/31 03:16:02;;;;;;;30.20;26.00;;;10.00;99.90;;;;;;2093422;28;20036;-70
2024/03/31 03:17:07;;;;;;;29.80;24.75;;;10.10;99.90;;;;;;2092328;28;20032;-69
2024/03/31 03:18:07;;;;;;;28.45;23.92;;;10.00;99.90;;;;;;2094622;28;20484;-71
2024/03/31 03:19:08;;;;;;;29.77;23.80;;;10.00;99.90;;;;;;2094047;28;20702;-70
2024/03/31 03:20:09;;;;;;;29.35;25.02;;;10.00;99.90;;;;;;2093614;28;20063;-71
2024/03/31 03:21:09;;;;;;;29.20;24.63;;;10.00;99.90;;;;;;2092440;28;20049;-71
2024/03/31 03:22:10;;;;;;;27.92;24.83;;;10.00;99.90;;;;;;2093326;28;20016;-70
2024/03/31 03:23:11;;;;;;;28.45;25.27;;;10.00;99.90;;;;;;2095148;28;20491;-70
2024/03/31 03:24:12;;;;;;;29.92;25.58;;;10.00;99.90;;;;;;2083720;28;20032;-70
2024/03/31 03:25:12;;;;;;;31.23;26.48;;;10.00;99.90;;;;;;2086203;28;20597;-70
2024/03/31 03:26:13;;;;;;;31.00;26.48;;;10.00;99.90;;;;;;2093667;28;20033;-70
2024/03/31 03:27:17;;;;;;;30.02;26.75;;;10.00;99.90;;;;;;2093342;28;20040;-71
2024/03/31 03:28:20;;;;;;;32.33;28.08;;;10.00;99.90;;;;;;2092135;28;20086;-70
2024/03/31 03:29:20;;;;;;;36.33;28.42;;;10.00;99.90;;;;;;2093646;28;20031;-70
2024/03/31 03:30:21;;;;;;;30.05;26.77;;;10.00;99.90;;;;;;2094806;28;20104;-71
2024/03/31 03:31:21;;;;;;;32.55;27.65;;;10.00;99.90;;;;;;2094854;28;20075;-70
2024/03/31 03:32:22;;;;;;;36.83;28.73;;;10.00;99.90;;;;;;2094461;28;20013;-70
2024/03/31 03:33:22;;;;;;;32.53;28.73;;;10.00;99.90;;;;;;2094133;28;20032;-71
2024/03/31 03:34:23;;;;;;;32.80;27.67;;;10.10;99.90;;;;;;2093817;28;20106;-70
2024/03/31 03:35:25;;;;;;;31.83;27.67;;;10.10;99.90;;;;;;2095004;28;20028;-70
2024/03/31 03:36:25;;;;;;;33.63;27.55;;;10.10;99.90;;;;;;2094805;28;20397;-70
2024/03/31 03:37:27;;;;;;;34.50;27.88;;;10.10;99.90;;;;;;2094283;28;20033;-70
2024/03/31 03:38:27;;;;;;;32.22;28.00;;;10.10;99.90;;;;;;2094149;28;20437;-70
2024/03/31 03:39:28;;;;;;;34.80;28.05;;;10.10;99.90;;;;;;2095767;28;20384;-70
2024/03/31 03:40:28;;;;;;;31.45;28.02;;;10.10;99.90;;;;;;2094975;28;20042;-70
2024/03/31 03:41:29;;;;;;;31.77;27.60;;;10.10;99.90;;;;;;2094371;28;20025;-70
2024/03/31 03:42:29;;;;;;;34.83;29.00;;;10.10;99.90;;;;;;2094506;28;20414;-70
2024/03/31 03:43:33;;;;;;;33.42;27.13;;;10.20;99.90;;;;;;2095198;28;20036;-70
2024/03/31 03:44:33;;;;;;;32.53;27.63;;;10.20;99.90;;;;;;2094674;28;20044;-70
2024/03/31 03:45:34;;;;;;;33.88;27.08;;;10.20;99.90;;;;;;2093841;28;20029;-70
2024/03/31 03:46:35;;;;;;;35.28;29.17;;;10.20;99.90;;;;;;2094059;28;20086;-70
2024/03/31 03:47:35;;;;;;;30.88;27.30;;;10.20;99.90;;;;;;2095569;28;20052;-70
2024/03/31 03:48:36;;;;;;;32.53;26.85;;;10.20;99.90;;;;;;2094478;28;20056;-70
2024/03/31 03:49:36;;;;;;;31.25;27.45;;;10.20;99.90;;;;;;2095413;28;20040;-70
2024/03/31 03:50:37;;;;;;;32.15;27.45;;;10.30;99.90;;;;;;2092424;28;20052;-70
2024/03/31 03:51:38;;;;;;;33.92;27.73;;;10.30;99.90;;;;;;2095517;28;20370;-70
2024/03/31 03:52:39;;;;;;;29.38;25.13;;;10.30;99.90;;;;;;2094237;28;20021;-70
2024/03/31 03:53:40;;;;;;;32.35;26.40;;;10.30;99.90;;;;;;2095129;28;20032;-70
2024/03/31 03:54:40;;;;;;;31.85;26.70;;;10.30;99.90;;;;;;2095433;28;20024;-70
2024/03/31 03:55:41;;;;;;;33.40;26.70;;;10.30;99.90;;;;;;2094002;28;20048;-70
2024/03/31 03:56:44;;;;;;;32.72;27.10;;;10.30;99.90;;;;;;2093916;28;20460;-70
2024/03/31 03:57:44;;;;;;;37.03;28.63;;;10.40;99.90;;;;;;2095306;28;20083;-70
2024/03/31 03:58:45;;;;;;;32.13;27.48;;;10.40;99.90;;;;;;2093923;28;20110;-70
2024/03/31 03:59:46;;;;;;;31.05;26.63;;;10.40;99.90;;;;;;2092659;28;20056;-70
2024/03/31 04:00:47;;;;;;;31.08;27.13;;;10.40;99.90;;;;;;2095240;28;20102;-70
2024/03/31 04:01:47;;;;;;;31.02;27.17;;;10.40;99.90;;;;;;2094330;28;20120;-70
2024/03/31 04:02:48;;;;;;;34.88;26.75;;;10.40;99.90;;;;;;2093610;28;20035;-70
2024/03/31 04:03:48;;;;;;;31.90;27.27;;;10.50;99.90;;;;;;2095432;28;20441;-70
2024/03/31 04:04:51;;;;;;;32.78;27.63;;;10.50;99.90;;;;;;2093528;28;20139;-71
2024/03/31 04:05:55;;;;;;;30.40;27.10;;;10.50;99.90;;;;;;2095593;28;20032;-70
2024/03/31 04:06:55;;;;;;;35.60;27.17;;;10.50;99.90;;;;;;2094912;28;20060;-71
2024/03/31 04:07:56;;;;;;;32.55;27.08;;;10.50;99.90;;;;;;2095117;28;20393;-70
2024/03/31 04:08:57;;;;;;;36.53;26.17;;;10.50;99.90;;;;;;2086764;28;20035;-70
2024/03/31 04:09:58;;;;;;;34.67;25.80;;;10.50;99.90;;;;;;2086452;28;20385;-70
2024/03/31 04:10:58;;;;;;;30.02;25.00;;;10.50;99.90;;;;;;2094516;28;20051;-70
2024/03/31 04:11:59;;;;;;;32.33;26.35;;;10.50;99.90;;;;;;2096079;28;20119;-70
2024/03/31 04:13:00;;;;;;;32.03;24.92;;;10.50;99.90;;;;;;2094664;28;20025;-70
2024/03/31 04:14:00;;;;;;;28.45;24.20;;;10.60;99.90;;;;;;2094148;28;20140;-70
2024/03/31 04:15:01;;;;;;;29.65;23.15;;;10.60;99.90;;;;;;2093822;28;20040;-71
2024/03/31 04:16:01;;;;;;;29.40;21.98;;;10.60;99.90;;;;;;2093916;28;20076;-70
2024/03/31 04:17:02;;;;;;;29.00;22.15;;;10.60;99.90;;;;;;2092712;28;20036;-70
2024/03/31 04:18:03;;;;;;;29.30;21.13;;;10.60;99.90;;;;;;2095274;28;20032;-70
2024/03/31 04:19:03;;;;;;;28.52;22.75;;;10.60;99.90;;;;;;2095831;28;20024;-70
2024/03/31 04:20:05;;;;;;;29.35;21.35;;;10.60;99.90;;;;;;2096806;28;20796;-71
2024/03/31 04:21:09;;;;;;;28.98;21.92;;;10.60;99.90;;;;;;2094634;28;20117;-70
2024/03/31 04:22:10;;;;;;;29.02;22.17;;;10.70;99.90;;;;;;2093706;28;20028;-70
2024/03/31 04:23:10;;;;;;;27.88;22.30;;;10.60;99.90;;;;;;2095383;28;20055;-70
2024/03/31 04:24:11;;;;;;;28.85;21.30;;;10.60;99.90;;;;;;2093796;28;20020;-70
2024/03/31 04:25:11;;;;;;;26.75;21.88;;;10.60;99.90;;;;;;2095697;28;20128;-71
2024/03/31 04:26:12;;;;;;;30.20;22.35;;;10.60;99.90;;;;;;2085779;28;20047;-70
2024/03/31 04:27:12;;;;;;;31.63;22.27;;;10.60;99.90;;;;;;2085311;28;20021;-70
2024/03/31 04:28:13;;;;;;;28.83;22.90;;;10.60;99.90;;;;;;2093732;28;20029;-70
2024/03/31 04:29:14;;;;;;;29.75;21.85;;;10.70;99.90;;;;;;2094049;28;20033;-70
2024/03/31 04:30:15;;;;;;;26.88;21.65;;;10.70;99.90;;;;;;2094792;28;20222;-68
2024/03/31 04:31:16;;;;;;;27.27;20.50;;;10.70;99.90;;;;;;2094935;28;20025;-68
2024/03/31 04:32:16;;;;;;;29.35;21.88;;;10.70;99.90;;;;;;2093411;28;20576;-70
2024/03/31 04:33:19;;;;;;;33.45;21.98;;;10.70;99.90;;;;;;2094155;28;20471;-69
2024/03/31 04:34:20;;;;;;;30.48;22.20;;;10.70;99.90;;;;;;2093350;28;20037;-70
2024/03/31 04:35:21;;;;;;;24.25;20.27;;;10.70;99.90;;;;;;2093564;28;20429;-70
2024/03/31 04:36:22;;;;;;;28.23;21.92;;;10.80;99.90;;;;;;2092943;28;20044;-70
2024/03/31 04:37:22;;;;;;;32.85;20.13;;;10.70;99.90;;;;;;2094910;28;20029;-70
2024/03/31 04:38:23;;;;;;;26.23;20.02;;;10.70;99.90;;;;;;2095103;28;20613;-70
2024/03/31 04:39:24;;;;;;;29.10;21.05;;;10.70;99.90;;;;;;2094402;28;20143;-70
2024/03/31 04:40:24;;;;;;;29.05;20.25;;;10.70;99.90;;;;;;2094165;28;20024;-70
2024/03/31 04:41:25;;;;;;;23.13;18.88;;;10.80;99.90;;;;;;2092987;28;20028;-70
2024/03/31 04:42:26;;;;;;;29.17;20.95;;;10.80;99.90;;;;;;2094508;28;20032;-70
2024/03/31 04:43:26;;;;;;;27.67;19.65;;;10.80;99.90;;;;;;2092819;28;20046;-70
2024/03/31 04:44:27;;;;;;;24.23;18.52;;;10.80;99.90;;;;;;2094281;28;20028;-71
2024/03/31 04:45:28;;;;;;;26.88;20.75;;;10.80;99.90;;;;;;2095907;28;20025;-70
2024/03/31 04:46:29;;;;;;;27.08;19.88;;;10.80;99.90;;;;;;2095862;28;20576;-70
2024/03/31 04:47:29;;;;;;;24.67;18.88;;;10.80;99.90;;;;;;2093814;28;20111;-70
2024/03/31 04:48:32;;;;;;;28.05;19.33;;;10.80;99.90;;;;;;2095464;28;20095;-70
2024/03/31 04:49:33;;;;;;;34.58;19.60;;;10.90;99.90;;;;;;2095098;28;20035;-70
2024/03/31 04:50:36;;;;;;;29.55;21.20;;;10.80;99.90;;;;;;2093572;28;20119;-70
2024/03/31 04:51:37;;;;;;;28.17;19.70;;;10.90;99.90;;;;;;2092802;28;20111;-70
2024/03/31 04:52:38;;;;;;;27.63;20.88;;;10.90;99.90;;;;;;2094886;28;20024;-70
2024/03/31 04:53:38;;;;;;;33.50;21.92;;;10.90;99.90;;;;;;2093334;28;20040;-70
2024/03/31 04:54:39;;;;;;;36.30;22.05;;;10.90;99.90;;;;;;2094714;28;20055;-70
2024/03/31 04:55:39;;;;;;;32.65;21.52;;;10.90;99.90;;;;;;2093498;28;20115;-70
2024/03/31 04:56:40;;;;;;;31.23;20.65;;;10.90;99.90;;;;;;2093513;28;20047;-70
2024/03/31 04:57:40;;;;;;;29.85;19.92;;;10.90;99.90;;;;;;2093727;28;20040;-70
2024/03/31 04:58:41;;;;;;;31.55;18.52;;;10.90;99.90;;;;;;2094286;28;20078;-71
2024/03/31 04:59:41;;;;;;;25.90;18.55;;;10.90;99.90;;;;;;2095593;28;20040;-71
2024/03/31 05:00:42;;;;;;;29.13;19.73;;;10.90;99.90;;;;;;2093098;28;20040;-71
2024/03/31 05:01:42;;;;;;;24.33;18.08;;;10.90;99.90;;;;;;2094012;28;20396;-71
2024/03/31 05:02:46;;;;;;;21.88;17.60;;;10.90;99.90;;;;;;2095051;28;20021;-75
2024/03/31 05:03:46;;;;;;;24.02;17.70;;;10.90;99.90;;;;;;2093955;28;20046;-71
2024/03/31 05:04:47;;;;;;;23.02;17.58;;;10.90;99.90;;;;;;2095573;28;20054;-71
2024/03/31 05:05:48;;;;;;;21.27;17.13;;;10.90;99.90;;;;;;2093885;28;20111;-71
2024/03/31 05:06:48;;;;;;;23.67;17.60;;;10.90;99.90;;;;;;2094191;28;20029;-70
2024/03/31 05:07:49;;;;;;;22.40;17.58;;;10.90;99.90;;;;;;2094287;28;20023;-70
2024/03/31 05:08:49;;;;;;;20.25;16.25;;;11.00;99.90;;;;;;2095039;28;20067;-71
2024/03/31 05:09:53;;;;;;;23.65;16.75;;;11.00;99.90;;;;;;2093631;28;20033;-71
2024/03/31 05:10:57;;;;;;;25.85;17.20;;;11.00;99.90;;;;;;2094337;28;20036;-70
2024/03/31 05:11:58;;;;;;;22.08;17.20;;;11.00;99.90;;;;;;2084268;28;20042;-71